createdAt,value
2022-08-28T00:02:45.642Z,7.05
2022-08-28T00:07:48.071Z,8.48
2022-08-28T00:12:51.931Z,7.95
2022-08-28T00:17:54.043Z,8.77
2022-08-28T00:22:57.201Z,9.15
2022-08-28T00:28:05.486Z,6.63
2022-08-28T00:33:17.366Z,9.27
2022-08-28T00:38:21.411Z,8.18
2022-08-28T00:43:34.914Z,8.32
2022-08-28T00:48:37.578Z,7.10
2022-08-28T00:53:39.728Z,4.68
2022-08-28T00:58:44.672Z,7.35
2022-08-28T01:03:46.336Z,8.30
2022-08-28T01:08:50.625Z,9.10
2022-08-28T01:13:54.446Z,7.95
2022-08-28T01:18:57.342Z,7.82
2022-08-28T01:24:04.671Z,9.82
2022-08-28T01:29:08.493Z,8.38
2022-08-28T01:34:12.963Z,9.23
2022-08-28T01:39:20.171Z,7.47
2022-08-28T01:44:25.173Z,9.90
2022-08-28T01:49:29.283Z,9.48
2022-08-28T01:54:31.389Z,10.93
2022-08-28T01:59:33.342Z,7.00
2022-08-28T02:04:35.526Z,9.23
2022-08-28T02:09:37.332Z,9.82
2022-08-28T02:14:39.046Z,11.30
2022-08-28T02:19:40.694Z,11.68
2022-08-28T02:24:42.367Z,8.43
2022-08-28T02:29:44.286Z,7.35
2022-08-28T02:34:45.963Z,10.05
2022-08-28T02:39:48.852Z,7.43
2022-08-28T02:44:50.523Z,14.93
2022-08-28T02:49:52.337Z,12.93
2022-08-28T02:54:53.992Z,8.55
2022-08-28T02:59:56.157Z,9.27
2022-08-28T03:04:59.769Z,12.20
2022-08-28T03:10:01.869Z,10.80
2022-08-28T03:15:04.023Z,12.15
2022-08-28T03:20:08.415Z,11.90
2022-08-28T03:25:11.526Z,11.07
2022-08-28T03:30:13.712Z,7.35
2022-08-28T03:35:16.377Z,8.07
2022-08-28T03:40:18.475Z,11.63
2022-08-28T03:45:20.754Z,9.45
2022-08-28T03:50:22.637Z,8.75
2022-08-28T03:55:26.651Z,10.23
2022-08-28T04:00:28.272Z,8.15
2022-08-28T04:05:29.923Z,7.50
2022-08-28T04:10:33.057Z,8.73
2022-08-28T04:15:34.832Z,10.73
2022-08-28T04:20:36.744Z,6.93
2022-08-28T04:25:40.392Z,9.98
2022-08-28T04:30:42.088Z,7.55
2022-08-28T04:35:43.711Z,11.30
2022-08-28T04:40:45.619Z,8.23
2022-08-28T04:45:47.591Z,12.40
2022-08-28T04:50:49.783Z,10.68
2022-08-28T04:55:54.472Z,6.95
2022-08-28T05:00:57.127Z,7.60
2022-08-28T05:05:58.817Z,10.07
2022-08-28T05:11:11.556Z,9.70
2022-08-28T05:16:14.415Z,11.05
2022-08-28T05:21:20.622Z,6.25
2022-08-28T05:26:23.307Z,10.00
2022-08-28T05:31:30.624Z,9.27
2022-08-28T05:36:35.276Z,7.70
2022-08-28T05:41:39.205Z,8.55
2022-08-28T05:46:42.746Z,8.40
2022-08-28T05:51:44.812Z,9.73
2022-08-28T05:56:47.182Z,8.25
2022-08-28T06:01:49.725Z,7.63
2022-08-28T06:06:52.012Z,10.77
2022-08-28T06:11:55.439Z,6.15
2022-08-28T06:16:59.933Z,8.25
2022-08-28T06:22:06.984Z,8.82
2022-08-28T06:27:09.123Z,10.07
2022-08-28T06:32:10.851Z,8.90
2022-08-28T06:37:12.880Z,5.18
2022-08-28T06:42:14.498Z,9.50
2022-08-28T06:47:16.138Z,7.65
2022-08-28T06:52:18.170Z,12.18
2022-08-28T06:57:19.771Z,7.72
2022-08-28T07:02:21.573Z,9.77
2022-08-28T07:07:31.581Z,6.93
2022-08-28T07:12:34.282Z,10.77
2022-08-28T07:17:36.222Z,8.43
2022-08-28T07:22:40.851Z,9.10
2022-08-28T07:27:43.620Z,6.38
2022-08-28T07:32:49.118Z,6.07
2022-08-28T07:37:50.722Z,6.75
2022-08-28T07:43:10.905Z,5.88
2022-08-28T07:48:12.978Z,6.18
2022-08-28T07:53:15.386Z,6.35
2022-08-28T07:58:18.306Z,7.70
2022-08-28T08:03:20.859Z,9.20
2022-08-28T08:08:22.796Z,5.32
2022-08-28T08:13:24.760Z,5.60
2022-08-28T08:18:26.498Z,6.78
2022-08-28T08:23:28.235Z,7.63
2022-08-28T08:28:30.193Z,7.63
2022-08-28T08:33:32.472Z,6.90
2022-08-28T08:38:35.538Z,6.80
2022-08-28T08:43:56.857Z,7.25
2022-08-28T08:49:02.894Z,5.45
2022-08-28T08:54:08.717Z,7.80
2022-08-28T08:59:21.604Z,7.30
2022-08-28T09:04:46.383Z,7.18
2022-08-28T09:09:53.630Z,4.95
2022-08-28T09:15:17.415Z,4.18
2022-08-28T09:20:25.891Z,4.63
2022-08-28T09:25:55.056Z,5.32
2022-08-28T09:31:05.151Z,3.90
2022-08-28T09:36:42.465Z,7.70
2022-08-28T09:42:34.570Z,8.05
2022-08-28T09:47:45.962Z,7.07
2022-08-28T09:52:49.155Z,6.43
2022-08-28T09:57:50.856Z,8.10
2022-08-28T10:03:07.499Z,3.17
2022-08-28T10:08:37.216Z,6.18
2022-08-28T10:13:53.846Z,5.50
2022-08-28T10:19:25.424Z,7.50
2022-08-28T10:25:01.477Z,5.57
2022-08-28T10:30:21.567Z,4.10
2022-08-28T10:35:32.495Z,6.35
2022-08-28T10:40:41.722Z,6.43
2022-08-28T10:45:43.688Z,4.78
2022-08-28T10:50:59.982Z,5.93
2022-08-28T10:56:08.485Z,2.95
2022-08-28T11:01:25.721Z,4.45
2022-08-28T11:06:31.785Z,5.40
2022-08-28T11:11:41.784Z,7.28
2022-08-28T11:16:47.023Z,6.50
2022-08-28T11:21:57.515Z,5.50
2022-08-28T11:27:16.939Z,6.40
2022-08-28T11:32:50.327Z,5.07
2022-08-28T11:37:54.839Z,5.07
2022-08-28T11:43:14.815Z,4.18
2022-08-28T11:48:33.630Z,2.97
2022-08-28T11:53:43.135Z,3.45
2022-08-28T11:58:51.459Z,4.25
2022-08-28T12:03:55.166Z,2.88
2022-08-28T12:09:03.843Z,5.53
2022-08-28T12:14:10.610Z,3.53
2022-08-28T12:19:55.183Z,2.53
2022-08-28T12:25:02.115Z,4.57
2022-08-28T12:30:05.053Z,3.30
2022-08-28T12:35:16.685Z,4.53
2022-08-28T12:40:27.610Z,3.63
2022-08-28T12:46:00.376Z,4.13
2022-08-28T12:51:12.949Z,2.53
2022-08-28T12:56:17.742Z,4.20
2022-08-28T13:01:33.795Z,2.90
2022-08-28T13:06:38.473Z,2.55
2022-08-28T13:11:46.148Z,2.92
2022-08-28T13:16:49.290Z,3.63
2022-08-28T13:22:03.554Z,4.43
2022-08-28T13:27:13.863Z,3.47
2022-08-28T13:32:17.579Z,3.17
2022-08-28T13:37:43.665Z,3.33
2022-08-28T13:42:47.388Z,5.15
2022-08-28T13:47:50.165Z,4.22
2022-08-28T13:52:53.410Z,3.47
2022-08-28T13:57:58.867Z,3.70
2022-08-28T14:03:35.396Z,5.57
2022-08-28T14:13:40.255Z,3.60
2022-08-28T14:18:42.380Z,3.65
2022-08-28T14:23:43.995Z,3.80
2022-08-28T14:28:45.614Z,2.35
2022-08-28T14:33:47.315Z,3.05
2022-08-28T14:38:53.702Z,4.70
2022-08-28T14:43:56.567Z,4.18
2022-08-28T14:49:02.286Z,3.67
2022-08-28T14:54:04.766Z,3.53
2022-08-28T14:59:09.420Z,3.83
2022-08-28T15:04:16.852Z,6.18
2022-08-28T15:09:19.414Z,2.50
2022-08-28T15:14:21.134Z,4.03
2022-08-28T15:19:23.383Z,2.28
2022-08-28T15:24:28.518Z,3.13
2022-08-28T15:29:30.771Z,2.57
2022-08-28T15:34:32.510Z,3.95
2022-08-28T15:39:53.038Z,3.05
2022-08-28T15:44:54.704Z,6.47
2022-08-28T15:49:57.094Z,2.97
2022-08-28T15:54:58.816Z,4.43
2022-08-28T16:00:00.586Z,3.58
2022-08-28T16:05:02.234Z,4.95
2022-08-28T16:10:07.063Z,3.15
2022-08-28T16:15:09.595Z,7.40
2022-08-28T16:20:13.063Z,4.38
2022-08-28T16:25:14.994Z,3.45
2022-08-28T16:30:17.387Z,4.07
2022-08-28T16:35:19.906Z,4.28
2022-08-28T16:40:21.711Z,4.22
2022-08-28T16:45:23.448Z,3.83
2022-08-28T16:50:26.754Z,2.80
2022-08-28T16:55:28.985Z,5.43
2022-08-28T17:00:31.192Z,4.15
2022-08-28T17:05:32.861Z,3.53
2022-08-28T17:10:35.610Z,2.92
2022-08-28T17:15:37.575Z,4.47
2022-08-28T17:20:57.840Z,4.20
2022-08-28T17:25:59.463Z,5.15
2022-08-28T17:31:01.212Z,2.63
2022-08-28T17:36:03.299Z,3.40
2022-08-28T17:41:06.399Z,4.32
2022-08-28T17:46:08.151Z,3.95
2022-08-28T17:51:10.104Z,6.07
2022-08-28T17:56:12.113Z,5.10
2022-08-28T18:01:25.413Z,4.10
2022-08-28T18:06:27.160Z,4.53
2022-08-28T18:11:29.082Z,7.53
2022-08-28T18:16:36.594Z,5.60
2022-08-28T18:21:39.215Z,7.88
2022-08-28T18:26:42.551Z,4.28
2022-08-28T18:31:44.273Z,4.20
2022-08-28T18:36:46.335Z,6.93
2022-08-28T18:41:47.971Z,5.05
2022-08-28T18:46:49.631Z,3.30
2022-08-28T18:51:51.395Z,4.75
2022-08-28T18:56:59.614Z,7.10
2022-08-28T19:02:05.938Z,4.93
2022-08-28T19:07:07.954Z,6.35
2022-08-28T19:12:09.798Z,7.72
2022-08-28T19:17:11.659Z,7.55
2022-08-28T19:22:13.684Z,7.38
2022-08-28T19:27:16.019Z,6.80
2022-08-28T19:32:17.842Z,6.25
2022-08-28T19:37:19.518Z,8.52
2022-08-28T19:42:21.170Z,6.53
2022-08-28T19:47:23.334Z,10.18
2022-08-28T19:52:25.190Z,7.93
2022-08-28T19:57:26.940Z,7.50
2022-08-28T20:02:29.344Z,6.88
2022-08-28T20:07:31.090Z,7.00
2022-08-28T20:12:33.210Z,11.30
2022-08-28T20:17:35.421Z,7.90
2022-08-28T20:22:45.532Z,7.38
2022-08-28T20:27:47.220Z,8.30
2022-08-28T20:32:48.955Z,6.30
2022-08-28T20:37:50.832Z,7.78
2022-08-28T20:42:52.560Z,7.32
2022-08-28T20:47:54.375Z,8.18
2022-08-28T20:52:56.067Z,10.52
2022-08-28T20:57:57.874Z,7.10
2022-08-28T21:02:59.525Z,8.20
2022-08-28T21:08:01.206Z,8.98
2022-08-28T21:13:04.042Z,9.02
2022-08-28T21:18:08.037Z,8.50
2022-08-28T21:23:11.848Z,7.07
2022-08-28T21:28:13.498Z,6.97
2022-08-28T21:33:15.277Z,7.03
2022-08-28T21:38:17.040Z,6.13
2022-08-28T21:43:19.149Z,5.57
2022-08-28T21:48:20.839Z,7.63
2022-08-28T21:53:26.140Z,6.75
2022-08-28T21:58:27.944Z,5.38
2022-08-28T22:03:29.944Z,6.53
2022-08-28T22:08:31.598Z,6.55
2022-08-28T22:13:33.576Z,5.15
2022-08-28T22:18:35.434Z,5.05
2022-08-28T22:23:38.861Z,7.53
2022-08-28T22:28:40.536Z,8.15
2022-08-28T22:33:43.025Z,7.03
2022-08-28T22:38:49.693Z,6.13
2022-08-28T22:43:55.041Z,5.95
2022-08-28T22:48:56.750Z,5.95
2022-08-28T22:53:58.602Z,5.93
2022-08-28T22:59:00.381Z,8.52
2022-08-28T23:04:02.835Z,7.72
2022-08-28T23:09:04.639Z,4.85
2022-08-28T23:14:06.274Z,6.38
2022-08-28T23:19:09.002Z,6.35
2022-08-28T23:24:15.966Z,7.75
2022-08-28T23:29:17.716Z,7.30
2022-08-28T23:34:19.469Z,6.57
2022-08-28T23:39:21.269Z,9.10
2022-08-28T23:44:23.078Z,5.60
2022-08-28T23:49:27.061Z,8.57
2022-08-28T23:54:28.835Z,6.75
2022-08-28T23:59:31.082Z,7.47
